sensor_id;sensor_type;location;lat;lon;timestamp;P1;durP1;ratioP1;P2;durP2;ratioP2
62419;SDS011;48460;51.616;5.426;2022-08-30T00:00:10;9.70;;;5.55;;
62419;SDS011;48460;51.616;5.426;2022-08-30T00:02:56;12.27;;;5.32;;
62419;SDS011;48460;51.616;5.426;2022-08-30T00:05:24;11.85;;;5.45;;
62419;SDS011;48460;51.616;5.426;2022-08-30T00:07:50;10.88;;;5.18;;
62419;SDS011;48460;51.616;5.426;2022-08-30T00:10:16;18.10;;;5.75;;
62419;SDS011;48460;51.616;5.426;2022-08-30T00:12:41;15.70;;;5.60;;
62419;SDS011;48460;51.616;5.426;2022-08-30T00:15:08;14.52;;;5.43;;
62419;SDS011;48460;51.616;5.426;2022-08-30T00:17:35;11.75;;;5.90;;
62419;SDS011;48460;51.616;5.426;2022-08-30T00:20:01;14.20;;;5.88;;
62419;SDS011;48460;51.616;5.426;2022-08-30T00:22:29;12.00;;;5.90;;
62419;SDS011;48460;51.616;5.426;2022-08-30T00:24:56;15.48;;;5.90;;
62419;SDS011;48460;51.616;5.426;2022-08-30T00:27:24;14.77;;;5.80;;
62419;SDS011;48460;51.616;5.426;2022-08-30T00:29:50;12.05;;;5.65;;
62419;SDS011;48460;51.616;5.426;2022-08-30T00:32:16;12.38;;;5.50;;
62419;SDS011;48460;51.616;5.426;2022-08-30T00:34:42;14.30;;;5.60;;
62419;SDS011;48460;51.616;5.426;2022-08-30T00:37:07;15.88;;;5.82;;
62419;SDS011;48460;51.616;5.426;2022-08-30T00:39:33;11.52;;;5.22;;
62419;SDS011;48460;51.616;5.426;2022-08-30T00:41:58;11.65;;;5.20;;
62419;SDS011;48460;51.616;5.426;2022-08-30T00:44:23;13.07;;;5.57;;
62419;SDS011;48460;51.616;5.426;2022-08-30T00:46:49;12.02;;;5.85;;
62419;SDS011;48460;51.616;5.426;2022-08-30T00:49:14;14.70;;;5.88;;
62419;SDS011;48460;51.616;5.426;2022-08-30T00:51:40;18.77;;;6.28;;
62419;SDS011;48460;51.616;5.426;2022-08-30T00:54:06;12.50;;;5.43;;
62419;SDS011;48460;51.616;5.426;2022-08-30T00:56:32;13.48;;;5.78;;
62419;SDS011;48460;51.616;5.426;2022-08-30T00:58:59;14.68;;;5.60;;
62419;SDS011;48460;51.616;5.426;2022-08-30T01:01:27;13.48;;;5.80;;
62419;SDS011;48460;51.616;5.426;2022-08-30T01:03:53;12.18;;;5.40;;
62419;SDS011;48460;51.616;5.426;2022-08-30T01:06:20;10.35;;;5.95;;
62419;SDS011;48460;51.616;5.426;2022-08-30T01:08:46;10.77;;;5.57;;
62419;SDS011;48460;51.616;5.426;2022-08-30T01:11:13;10.95;;;5.55;;
62419;SDS011;48460;51.616;5.426;2022-08-30T01:13:41;11.68;;;5.40;;
62419;SDS011;48460;51.616;5.426;2022-08-30T01:16:07;14.05;;;5.75;;
62419;SDS011;48460;51.616;5.426;2022-08-30T01:18:34;12.23;;;5.20;;
62419;SDS011;48460;51.616;5.426;2022-08-30T01:21:03;10.75;;;5.38;;
62419;SDS011;48460;51.616;5.426;2022-08-30T01:23:38;14.05;;;5.45;;
62419;SDS011;48460;51.616;5.426;2022-08-30T01:26:07;10.15;;;5.25;;
62419;SDS011;48460;51.616;5.426;2022-08-30T01:28:34;9.32;;;4.93;;
62419;SDS011;48460;51.616;5.426;2022-08-30T01:31:00;11.90;;;5.30;;
62419;SDS011;48460;51.616;5.426;2022-08-30T01:33:25;11.02;;;5.32;;
62419;SDS011;48460;51.616;5.426;2022-08-30T01:35:53;10.50;;;5.28;;
62419;SDS011;48460;51.616;5.426;2022-08-30T01:38:36;8.52;;;5.00;;
62419;SDS011;48460;51.616;5.426;2022-08-30T01:41:18;9.93;;;4.70;;
62419;SDS011;48460;51.616;5.426;2022-08-30T01:43:44;11.80;;;5.45;;
62419;SDS011;48460;51.616;5.426;2022-08-30T01:46:11;11.93;;;5.07;;
62419;SDS011;48460;51.616;5.426;2022-08-30T01:48:39;13.60;;;5.30;;
62419;SDS011;48460;51.616;5.426;2022-08-30T01:51:08;9.20;;;5.40;;
62419;SDS011;48460;51.616;5.426;2022-08-30T01:53:35;10.75;;;5.38;;
62419;SDS011;48460;51.616;5.426;2022-08-30T01:56:00;13.15;;;5.55;;
62419;SDS011;48460;51.616;5.426;2022-08-30T01:58:25;9.73;;;5.35;;
62419;SDS011;48460;51.616;5.426;2022-08-30T02:00:52;9.95;;;5.30;;
62419;SDS011;48460;51.616;5.426;2022-08-30T02:03:17;14.18;;;5.70;;
62419;SDS011;48460;51.616;5.426;2022-08-30T02:05:43;10.70;;;5.18;;
62419;SDS011;48460;51.616;5.426;2022-08-30T02:08:09;12.48;;;5.60;;
62419;SDS011;48460;51.616;5.426;2022-08-30T02:10:34;14.45;;;5.95;;
62419;SDS011;48460;51.616;5.426;2022-08-30T02:13:00;12.93;;;5.85;;
62419;SDS011;48460;51.616;5.426;2022-08-30T02:15:25;9.95;;;6.13;;
62419;SDS011;48460;51.616;5.426;2022-08-30T02:17:51;11.45;;;5.35;;
62419;SDS011;48460;51.616;5.426;2022-08-30T02:20:16;16.05;;;5.50;;
62419;SDS011;48460;51.616;5.426;2022-08-30T02:22:42;12.98;;;5.95;;
62419;SDS011;48460;51.616;5.426;2022-08-30T02:25:08;10.32;;;5.55;;
62419;SDS011;48460;51.616;5.426;2022-08-30T02:27:34;9.82;;;5.90;;
62419;SDS011;48460;51.616;5.426;2022-08-30T02:30:00;8.75;;;5.50;;
62419;SDS011;48460;51.616;5.426;2022-08-30T02:32:25;10.45;;;5.90;;
62419;SDS011;48460;51.616;5.426;2022-08-30T02:34:51;11.38;;;6.18;;
62419;SDS011;48460;51.616;5.426;2022-08-30T02:37:16;11.60;;;6.60;;
62419;SDS011;48460;51.616;5.426;2022-08-30T02:39:42;11.65;;;6.13;;
62419;SDS011;48460;51.616;5.426;2022-08-30T02:42:07;13.85;;;6.15;;
62419;SDS011;48460;51.616;5.426;2022-08-30T02:44:33;11.40;;;6.38;;
62419;SDS011;48460;51.616;5.426;2022-08-30T02:46:58;10.18;;;6.30;;
62419;SDS011;48460;51.616;5.426;2022-08-30T02:49:24;15.90;;;6.75;;
62419;SDS011;48460;51.616;5.426;2022-08-30T02:51:49;9.93;;;6.22;;
62419;SDS011;48460;51.616;5.426;2022-08-30T02:54:15;13.57;;;6.70;;
62419;SDS011;48460;51.616;5.426;2022-08-30T02:56:44;10.85;;;6.88;;
62419;SDS011;48460;51.616;5.426;2022-08-30T02:59:11;11.52;;;6.93;;
62419;SDS011;48460;51.616;5.426;2022-08-30T03:01:36;11.48;;;6.57;;
62419;SDS011;48460;51.616;5.426;2022-08-30T03:04:03;12.95;;;6.43;;
62419;SDS011;48460;51.616;5.426;2022-08-30T03:06:29;15.82;;;7.15;;
62419;SDS011;48460;51.616;5.426;2022-08-30T03:08:55;12.00;;;6.90;;
62419;SDS011;48460;51.616;5.426;2022-08-30T03:11:20;9.70;;;6.45;;
62419;SDS011;48460;51.616;5.426;2022-08-30T03:13:46;9.07;;;6.95;;
62419;SDS011;48460;51.616;5.426;2022-08-30T03:16:12;12.05;;;7.32;;
62419;SDS011;48460;51.616;5.426;2022-08-30T03:18:37;13.63;;;7.07;;
62419;SDS011;48460;51.616;5.426;2022-08-30T03:21:08;12.98;;;7.40;;
62419;SDS011;48460;51.616;5.426;2022-08-30T03:23:37;13.85;;;7.32;;
62419;SDS011;48460;51.616;5.426;2022-08-30T03:26:05;10.70;;;6.88;;
62419;SDS011;48460;51.616;5.426;2022-08-30T03:28:31;10.38;;;7.35;;
62419;SDS011;48460;51.616;5.426;2022-08-30T03:30:56;14.88;;;7.43;;
62419;SDS011;48460;51.616;5.426;2022-08-30T03:33:22;9.65;;;7.40;;
62419;SDS011;48460;51.616;5.426;2022-08-30T03:35:47;12.15;;;7.85;;
62419;SDS011;48460;51.616;5.426;2022-08-30T03:38:14;12.43;;;8.07;;
62419;SDS011;48460;51.616;5.426;2022-08-30T03:40:40;12.80;;;7.88;;
62419;SDS011;48460;51.616;5.426;2022-08-30T03:43:05;13.23;;;9.20;;
62419;SDS011;48460;51.616;5.426;2022-08-30T03:45:31;13.82;;;8.02;;
62419;SDS011;48460;51.616;5.426;2022-08-30T03:47:57;14.10;;;8.27;;
62419;SDS011;48460;51.616;5.426;2022-08-30T03:50:23;13.77;;;7.88;;
62419;SDS011;48460;51.616;5.426;2022-08-30T03:52:48;14.15;;;8.43;;
62419;SDS011;48460;51.616;5.426;2022-08-30T03:55:14;16.10;;;8.15;;
62419;SDS011;48460;51.616;5.426;2022-08-30T03:57:39;12.45;;;8.45;;
62419;SDS011;48460;51.616;5.426;2022-08-30T04:00:06;17.98;;;8.50;;
62419;SDS011;48460;51.616;5.426;2022-08-30T04:02:32;13.65;;;8.60;;
62419;SDS011;48460;51.616;5.426;2022-08-30T04:04:58;11.27;;;8.55;;
62419;SDS011;48460;51.616;5.426;2022-08-30T04:07:23;13.00;;;8.68;;
62419;SDS011;48460;51.616;5.426;2022-08-30T04:09:49;11.90;;;8.02;;
62419;SDS011;48460;51.616;5.426;2022-08-30T04:12:14;13.15;;;8.63;;
62419;SDS011;48460;51.616;5.426;2022-08-30T04:14:39;12.20;;;8.95;;
62419;SDS011;48460;51.616;5.426;2022-08-30T04:17:05;16.15;;;9.32;;
62419;SDS011;48460;51.616;5.426;2022-08-30T04:19:30;13.40;;;8.85;;
62419;SDS011;48460;51.616;5.426;2022-08-30T04:21:56;12.00;;;8.85;;
62419;SDS011;48460;51.616;5.426;2022-08-30T04:24:21;12.45;;;8.90;;
62419;SDS011;48460;51.616;5.426;2022-08-30T04:26:47;14.38;;;9.15;;
62419;SDS011;48460;51.616;5.426;2022-08-30T04:29:13;13.23;;;9.45;;
62419;SDS011;48460;51.616;5.426;2022-08-30T04:31:41;14.77;;;9.52;;
62419;SDS011;48460;51.616;5.426;2022-08-30T04:34:08;14.20;;;9.23;;
62419;SDS011;48460;51.616;5.426;2022-08-30T04:36:37;14.43;;;9.70;;
62419;SDS011;48460;51.616;5.426;2022-08-30T04:39:02;11.63;;;9.48;;
62419;SDS011;48460;51.616;5.426;2022-08-30T04:41:28;12.82;;;10.13;;
62419;SDS011;48460;51.616;5.426;2022-08-30T04:43:54;14.52;;;10.15;;
62419;SDS011;48460;51.616;5.426;2022-08-30T04:46:19;17.67;;;10.43;;
62419;SDS011;48460;51.616;5.426;2022-08-30T04:48:45;16.80;;;9.95;;
62419;SDS011;48460;51.616;5.426;2022-08-30T04:51:11;13.40;;;10.65;;
62419;SDS011;48460;51.616;5.426;2022-08-30T04:53:39;17.02;;;9.70;;
62419;SDS011;48460;51.616;5.426;2022-08-30T04:56:06;14.45;;;10.77;;
62419;SDS011;48460;51.616;5.426;2022-08-30T04:58:33;17.08;;;10.43;;
62419;SDS011;48460;51.616;5.426;2022-08-30T05:00:58;16.65;;;11.25;;
62419;SDS011;48460;51.616;5.426;2022-08-30T05:03:24;13.52;;;11.02;;
62419;SDS011;48460;51.616;5.426;2022-08-30T05:05:50;12.95;;;9.93;;
62419;SDS011;48460;51.616;5.426;2022-08-30T05:08:16;18.05;;;10.82;;
62419;SDS011;48460;51.616;5.426;2022-08-30T05:10:45;14.70;;;10.95;;
62419;SDS011;48460;51.616;5.426;2022-08-30T05:13:13;14.98;;;10.55;;
62419;SDS011;48460;51.616;5.426;2022-08-30T05:15:39;15.18;;;11.50;;
62419;SDS011;48460;51.616;5.426;2022-08-30T05:18:06;17.77;;;11.15;;
62419;SDS011;48460;51.616;5.426;2022-08-30T05:20:33;15.40;;;11.32;;
62419;SDS011;48460;51.616;5.426;2022-08-30T05:22:59;20.17;;;11.77;;
62419;SDS011;48460;51.616;5.426;2022-08-30T05:25:27;18.35;;;11.30;;
62419;SDS011;48460;51.616;5.426;2022-08-30T05:27:54;14.70;;;11.25;;
62419;SDS011;48460;51.616;5.426;2022-08-30T05:30:21;16.10;;;11.32;;
62419;SDS011;48460;51.616;5.426;2022-08-30T05:32:48;18.63;;;10.95;;
62419;SDS011;48460;51.616;5.426;2022-08-30T05:35:14;13.50;;;11.23;;
62419;SDS011;48460;51.616;5.426;2022-08-30T05:37:41;16.95;;;11.50;;
62419;SDS011;48460;51.616;5.426;2022-08-30T05:40:07;17.33;;;11.85;;
62419;SDS011;48460;51.616;5.426;2022-08-30T05:42:33;16.52;;;11.80;;
62419;SDS011;48460;51.616;5.426;2022-08-30T05:45:00;21.65;;;11.60;;
62419;SDS011;48460;51.616;5.426;2022-08-30T05:47:26;21.60;;;11.45;;
62419;SDS011;48460;51.616;5.426;2022-08-30T05:49:52;15.95;;;11.55;;
62419;SDS011;48460;51.616;5.426;2022-08-30T05:52:17;18.40;;;11.20;;
62419;SDS011;48460;51.616;5.426;2022-08-30T05:54:51;18.80;;;10.85;;
62419;SDS011;48460;51.616;5.426;2022-08-30T05:57:18;14.00;;;10.75;;
62419;SDS011;48460;51.616;5.426;2022-08-30T05:59:44;18.90;;;11.32;;
62419;SDS011;48460;51.616;5.426;2022-08-30T06:02:09;15.65;;;11.00;;
62419;SDS011;48460;51.616;5.426;2022-08-30T06:04:35;16.65;;;10.82;;
62419;SDS011;48460;51.616;5.426;2022-08-30T06:07:01;14.18;;;10.55;;
62419;SDS011;48460;51.616;5.426;2022-08-30T06:09:29;14.85;;;10.95;;
62419;SDS011;48460;51.616;5.426;2022-08-30T06:11:54;14.43;;;10.38;;
62419;SDS011;48460;51.616;5.426;2022-08-30T06:14:21;16.00;;;10.57;;
62419;SDS011;48460;51.616;5.426;2022-08-30T06:16:47;12.93;;;10.25;;
62419;SDS011;48460;51.616;5.426;2022-08-30T06:19:13;15.25;;;10.25;;
62419;SDS011;48460;51.616;5.426;2022-08-30T06:21:40;13.80;;;9.98;;
62419;SDS011;48460;51.616;5.426;2022-08-30T06:24:07;14.45;;;9.77;;
62419;SDS011;48460;51.616;5.426;2022-08-30T06:26:41;13.65;;;10.30;;
62419;SDS011;48460;51.616;5.426;2022-08-30T06:29:12;14.07;;;9.57;;
62419;SDS011;48460;51.616;5.426;2022-08-30T06:31:39;13.55;;;9.50;;
62419;SDS011;48460;51.616;5.426;2022-08-30T06:34:05;11.82;;;8.85;;
62419;SDS011;48460;51.616;5.426;2022-08-30T06:36:31;15.52;;;9.27;;
62419;SDS011;48460;51.616;5.426;2022-08-30T06:38:58;13.07;;;8.82;;
62419;SDS011;48460;51.616;5.426;2022-08-30T06:41:24;12.05;;;8.93;;
62419;SDS011;48460;51.616;5.426;2022-08-30T06:43:52;11.15;;;8.80;;
62419;SDS011;48460;51.616;5.426;2022-08-30T06:46:19;10.40;;;7.93;;
62419;SDS011;48460;51.616;5.426;2022-08-30T06:48:47;11.55;;;8.57;;
62419;SDS011;48460;51.616;5.426;2022-08-30T06:51:13;11.60;;;8.35;;
62419;SDS011;48460;51.616;5.426;2022-08-30T06:53:39;13.02;;;7.90;;
62419;SDS011;48460;51.616;5.426;2022-08-30T06:56:08;10.63;;;7.57;;
62419;SDS011;48460;51.616;5.426;2022-08-30T06:58:36;10.90;;;7.68;;
62419;SDS011;48460;51.616;5.426;2022-08-30T07:01:03;14.02;;;7.75;;
62419;SDS011;48460;51.616;5.426;2022-08-30T07:03:29;11.63;;;7.90;;
62419;SDS011;48460;51.616;5.426;2022-08-30T07:05:58;11.25;;;7.53;;
62419;SDS011;48460;51.616;5.426;2022-08-30T07:08:24;12.38;;;7.00;;
62419;SDS011;48460;51.616;5.426;2022-08-30T07:10:50;11.85;;;6.88;;
62419;SDS011;48460;51.616;5.426;2022-08-30T07:13:18;9.73;;;6.70;;
62419;SDS011;48460;51.616;5.426;2022-08-30T07:15:45;11.27;;;7.10;;
62419;SDS011;48460;51.616;5.426;2022-08-30T07:18:11;12.15;;;7.18;;
62419;SDS011;48460;51.616;5.426;2022-08-30T07:20:56;11.30;;;6.57;;
62419;SDS011;48460;51.616;5.426;2022-08-30T07:23:22;10.50;;;6.50;;
62419;SDS011;48460;51.616;5.426;2022-08-30T07:25:48;11.55;;;6.40;;
62419;SDS011;48460;51.616;5.426;2022-08-30T07:28:13;9.18;;;5.85;;
62419;SDS011;48460;51.616;5.426;2022-08-30T07:30:39;10.32;;;5.75;;
62419;SDS011;48460;51.616;5.426;2022-08-30T07:33:05;8.57;;;6.43;;
62419;SDS011;48460;51.616;5.426;2022-08-30T07:35:31;9.68;;;6.25;;
62419;SDS011;48460;51.616;5.426;2022-08-30T07:37:56;14.95;;;6.13;;
62419;SDS011;48460;51.616;5.426;2022-08-30T07:40:23;11.13;;;5.57;;
62419;SDS011;48460;51.616;5.426;2022-08-30T07:42:48;7.80;;;5.63;;
62419;SDS011;48460;51.616;5.426;2022-08-30T07:45:14;7.47;;;5.60;;
62419;SDS011;48460;51.616;5.426;2022-08-30T07:47:39;9.55;;;5.60;;
62419;SDS011;48460;51.616;5.426;2022-08-30T07:50:05;9.93;;;5.00;;
62419;SDS011;48460;51.616;5.426;2022-08-30T07:52:31;7.63;;;5.22;;
62419;SDS011;48460;51.616;5.426;2022-08-30T07:54:57;7.43;;;5.07;;
62419;SDS011;48460;51.616;5.426;2022-08-30T07:57:23;7.10;;;4.95;;
62419;SDS011;48460;51.616;5.426;2022-08-30T07:59:49;9.55;;;4.90;;
62419;SDS011;48460;51.616;5.426;2022-08-30T08:02:16;10.57;;;4.90;;
62419;SDS011;48460;51.616;5.426;2022-08-30T08:04:42;10.15;;;4.80;;
62419;SDS011;48460;51.616;5.426;2022-08-30T08:07:08;10.98;;;4.80;;
62419;SDS011;48460;51.616;5.426;2022-08-30T08:09:33;9.52;;;4.22;;
62419;SDS011;48460;51.616;5.426;2022-08-30T08:11:59;11.32;;;4.65;;
62419;SDS011;48460;51.616;5.426;2022-08-30T08:14:25;7.25;;;4.10;;
62419;SDS011;48460;51.616;5.426;2022-08-30T08:16:50;8.40;;;4.10;;
62419;SDS011;48460;51.616;5.426;2022-08-30T08:19:16;8.45;;;4.32;;
62419;SDS011;48460;51.616;5.426;2022-08-30T08:21:43;6.68;;;3.80;;
62419;SDS011;48460;51.616;5.426;2022-08-30T08:24:09;6.93;;;3.90;;
62419;SDS011;48460;51.616;5.426;2022-08-30T08:26:35;7.60;;;4.10;;
62419;SDS011;48460;51.616;5.426;2022-08-30T08:29:02;7.38;;;3.75;;
62419;SDS011;48460;51.616;5.426;2022-08-30T08:31:29;9.43;;;4.07;;
62419;SDS011;48460;51.616;5.426;2022-08-30T08:33:55;6.88;;;3.85;;
62419;SDS011;48460;51.616;5.426;2022-08-30T08:36:22;9.20;;;4.07;;
62419;SDS011;48460;51.616;5.426;2022-08-30T08:38:48;7.70;;;4.00;;
62419;SDS011;48460;51.616;5.426;2022-08-30T08:43:42;6.07;;;3.40;;
62419;SDS011;48460;51.616;5.426;2022-08-30T08:46:15;8.77;;;3.85;;
62419;SDS011;48460;51.616;5.426;2022-08-30T08:48:49;8.65;;;3.75;;
62419;SDS011;48460;51.616;5.426;2022-08-30T08:51:19;10.05;;;3.72;;
62419;SDS011;48460;51.616;5.426;2022-08-30T08:54:07;8.40;;;3.70;;
62419;SDS011;48460;51.616;5.426;2022-08-30T08:56:40;8.10;;;3.78;;
62419;SDS011;48460;51.616;5.426;2022-08-30T08:59:06;6.93;;;3.72;;
62419;SDS011;48460;51.616;5.426;2022-08-30T09:01:33;6.55;;;3.65;;
62419;SDS011;48460;51.616;5.426;2022-08-30T09:04:02;8.80;;;3.58;;
62419;SDS011;48460;51.616;5.426;2022-08-30T09:09:08;8.93;;;3.50;;
62419;SDS011;48460;51.616;5.426;2022-08-30T09:11:34;9.63;;;3.60;;
62419;SDS011;48460;51.616;5.426;2022-08-30T09:14:01;4.60;;;3.08;;
62419;SDS011;48460;51.616;5.426;2022-08-30T09:19:33;6.55;;;3.50;;
62419;SDS011;48460;51.616;5.426;2022-08-30T09:22:03;8.25;;;3.50;;
62419;SDS011;48460;51.616;5.426;2022-08-30T09:24:46;10.25;;;3.22;;
62419;SDS011;48460;51.616;5.426;2022-08-30T09:27:14;5.18;;;3.20;;
62419;SDS011;48460;51.616;5.426;2022-08-30T09:30:23;7.50;;;3.33;;
62419;SDS011;48460;51.616;5.426;2022-08-30T09:32:35;7.63;;;3.05;;
62419;SDS011;48460;51.616;5.426;2022-08-30T09:35:10;9.25;;;3.28;;
62419;SDS011;48460;51.616;5.426;2022-08-30T09:37:46;8.20;;;3.10;;
62419;SDS011;48460;51.616;5.426;2022-08-30T09:40:45;8.55;;;2.95;;
62419;SDS011;48460;51.616;5.426;2022-08-30T09:43:31;7.18;;;2.80;;
62419;SDS011;48460;51.616;5.426;2022-08-30T09:51:41;8.98;;;2.78;;
62419;SDS011;48460;51.616;5.426;2022-08-30T10:00:13;7.90;;;2.83;;
62419;SDS011;48460;51.616;5.426;2022-08-30T10:10:50;4.75;;;2.63;;
62419;SDS011;48460;51.616;5.426;2022-08-30T10:16:10;9.07;;;2.67;;
62419;SDS011;48460;51.616;5.426;2022-08-30T10:19:08;6.63;;;2.75;;
62419;SDS011;48460;51.616;5.426;2022-08-30T10:22:01;6.00;;;2.80;;
62419;SDS011;48460;51.616;5.426;2022-08-30T10:24:32;5.30;;;2.63;;
62419;SDS011;48460;51.616;5.426;2022-08-30T10:29:35;4.75;;;2.38;;
62419;SDS011;48460;51.616;5.426;2022-08-30T10:32:17;5.72;;;2.40;;
62419;SDS011;48460;51.616;5.426;2022-08-30T10:34:50;5.18;;;2.40;;
62419;SDS011;48460;51.616;5.426;2022-08-30T10:37:26;4.78;;;2.30;;
62419;SDS011;48460;51.616;5.426;2022-08-30T10:39:56;8.52;;;2.75;;
62419;SDS011;48460;51.616;5.426;2022-08-30T10:42:52;9.27;;;2.70;;
62419;SDS011;48460;51.616;5.426;2022-08-30T10:45:20;4.22;;;2.60;;
62419;SDS011;48460;51.616;5.426;2022-08-30T10:50:29;10.43;;;2.53;;
62419;SDS011;48460;51.616;5.426;2022-08-30T10:53:05;5.95;;;2.70;;
62419;SDS011;48460;51.616;5.426;2022-08-30T10:55:35;6.15;;;2.55;;
62419;SDS011;48460;51.616;5.426;2022-08-30T10:58:09;7.05;;;2.70;;
62419;SDS011;48460;51.616;5.426;2022-08-30T11:06:30;6.78;;;2.42;;
62419;SDS011;48460;51.616;5.426;2022-08-30T11:14:32;4.68;;;2.40;;
62419;SDS011;48460;51.616;5.426;2022-08-30T11:16:58;11.90;;;2.67;;
62419;SDS011;48460;51.616;5.426;2022-08-30T11:19:27;4.60;;;2.40;;
62419;SDS011;48460;51.616;5.426;2022-08-30T11:25:13;9.18;;;2.78;;
62419;SDS011;48460;51.616;5.426;2022-08-30T11:27:42;9.60;;;2.70;;
62419;SDS011;48460;51.616;5.426;2022-08-30T11:35:40;8.57;;;2.50;;
62419;SDS011;48460;51.616;5.426;2022-08-30T11:38:15;5.68;;;2.55;;
62419;SDS011;48460;51.616;5.426;2022-08-30T11:48:45;5.13;;;2.30;;
62419;SDS011;48460;51.616;5.426;2022-08-30T11:51:31;6.15;;;2.40;;
62419;SDS011;48460;51.616;5.426;2022-08-30T11:57:00;11.57;;;2.58;;
62419;SDS011;48460;51.616;5.426;2022-08-30T11:59:49;7.82;;;2.78;;
62419;SDS011;48460;51.616;5.426;2022-08-30T12:02:43;5.63;;;2.70;;
62419;SDS011;48460;51.616;5.426;2022-08-30T12:08:07;7.20;;;2.70;;
62419;SDS011;48460;51.616;5.426;2022-08-30T12:16:12;9.63;;;2.72;;
62419;SDS011;48460;51.616;5.426;2022-08-30T12:18:47;8.77;;;2.53;;
62419;SDS011;48460;51.616;5.426;2022-08-30T12:24:03;9.40;;;2.58;;
62419;SDS011;48460;51.616;5.426;2022-08-30T12:26:41;6.82;;;2.70;;
62419;SDS011;48460;51.616;5.426;2022-08-30T12:29:15;9.43;;;2.47;;
62419;SDS011;48460;51.616;5.426;2022-08-30T12:31:57;6.40;;;2.70;;
62419;SDS011;48460;51.616;5.426;2022-08-30T12:37:26;7.57;;;2.72;;
62419;SDS011;48460;51.616;5.426;2022-08-30T12:42:28;6.22;;;2.45;;
62419;SDS011;48460;51.616;5.426;2022-08-30T12:44:56;6.95;;;2.55;;
62419;SDS011;48460;51.616;5.426;2022-08-30T12:47:37;9.85;;;2.65;;
62419;SDS011;48460;51.616;5.426;2022-08-30T12:50:06;6.60;;;2.72;;
62419;SDS011;48460;51.616;5.426;2022-08-30T12:52:39;6.25;;;2.58;;
62419;SDS011;48460;51.616;5.426;2022-08-30T12:57:55;8.02;;;2.45;;
62419;SDS011;48460;51.616;5.426;2022-08-30T13:02:59;7.00;;;2.60;;
62419;SDS011;48460;51.616;5.426;2022-08-30T13:08:08;10.00;;;2.63;;
62419;SDS011;48460;51.616;5.426;2022-08-30T13:10:34;9.60;;;2.90;;
62419;SDS011;48460;51.616;5.426;2022-08-30T13:13:01;7.13;;;2.75;;
62419;SDS011;48460;51.616;5.426;2022-08-30T13:15:34;8.80;;;2.58;;
62419;SDS011;48460;51.616;5.426;2022-08-30T13:18:23;8.68;;;2.65;;
62419;SDS011;48460;51.616;5.426;2022-08-30T13:24:10;5.80;;;2.42;;
62419;SDS011;48460;51.616;5.426;2022-08-30T13:26:36;6.88;;;2.80;;
62419;SDS011;48460;51.616;5.426;2022-08-30T13:29:05;10.80;;;2.83;;
62419;SDS011;48460;51.616;5.426;2022-08-30T13:31:31;6.93;;;2.60;;
62419;SDS011;48460;51.616;5.426;2022-08-30T13:33:57;8.35;;;2.33;;
62419;SDS011;48460;51.616;5.426;2022-08-30T13:36:25;11.63;;;2.80;;
62419;SDS011;48460;51.616;5.426;2022-08-30T13:38:54;4.22;;;2.65;;
62419;SDS011;48460;51.616;5.426;2022-08-30T13:41:21;6.35;;;2.72;;
62419;SDS011;48460;51.616;5.426;2022-08-30T13:43:47;6.00;;;2.58;;
62419;SDS011;48460;51.616;5.426;2022-08-30T13:46:13;7.18;;;2.90;;
62419;SDS011;48460;51.616;5.426;2022-08-30T13:48:40;5.88;;;2.60;;
62419;SDS011;48460;51.616;5.426;2022-08-30T13:51:06;12.20;;;2.80;;
62419;SDS011;48460;51.616;5.426;2022-08-30T13:53:33;5.85;;;2.80;;
62419;SDS011;48460;51.616;5.426;2022-08-30T13:55:59;9.45;;;2.70;;
62419;SDS011;48460;51.616;5.426;2022-08-30T13:58:29;5.63;;;2.60;;
62419;SDS011;48460;51.616;5.426;2022-08-30T14:00:55;4.18;;;2.35;;
62419;SDS011;48460;51.616;5.426;2022-08-30T14:03:22;5.75;;;2.40;;
62419;SDS011;48460;51.616;5.426;2022-08-30T14:05:47;5.72;;;2.60;;
62419;SDS011;48460;51.616;5.426;2022-08-30T14:08:14;7.97;;;2.85;;
62419;SDS011;48460;51.616;5.426;2022-08-30T14:10:42;7.82;;;2.70;;
62419;SDS011;48460;51.616;5.426;2022-08-30T14:13:08;7.57;;;2.90;;
62419;SDS011;48460;51.616;5.426;2022-08-30T14:15:35;5.72;;;2.78;;
62419;SDS011;48460;51.616;5.426;2022-08-30T14:18:01;5.65;;;2.58;;
62419;SDS011;48460;51.616;5.426;2022-08-30T14:20:27;6.93;;;2.75;;
62419;SDS011;48460;51.616;5.426;2022-08-30T14:22:53;5.90;;;2.60;;
62419;SDS011;48460;51.616;5.426;2022-08-30T14:25:19;11.82;;;2.50;;
62419;SDS011;48460;51.616;5.426;2022-08-30T14:27:44;6.68;;;2.65;;
62419;SDS011;48460;51.616;5.426;2022-08-30T14:30:10;7.72;;;2.75;;
62419;SDS011;48460;51.616;5.426;2022-08-30T14:32:36;6.63;;;2.60;;
62419;SDS011;48460;51.616;5.426;2022-08-30T14:35:01;7.43;;;2.53;;
62419;SDS011;48460;51.616;5.426;2022-08-30T14:37:27;10.25;;;2.72;;
62419;SDS011;48460;51.616;5.426;2022-08-30T14:39:52;6.57;;;2.70;;
62419;SDS011;48460;51.616;5.426;2022-08-30T14:42:18;6.20;;;2.50;;
62419;SDS011;48460;51.616;5.426;2022-08-30T14:44:43;7.18;;;2.60;;
62419;SDS011;48460;51.616;5.426;2022-08-30T14:47:09;9.95;;;2.95;;
62419;SDS011;48460;51.616;5.426;2022-08-30T14:49:35;6.60;;;3.00;;
62419;SDS011;48460;51.616;5.426;2022-08-30T14:52:01;8.75;;;3.00;;
62419;SDS011;48460;51.616;5.426;2022-08-30T14:54:27;8.00;;;2.78;;
62419;SDS011;48460;51.616;5.426;2022-08-30T14:56:54;8.90;;;2.88;;
62419;SDS011;48460;51.616;5.426;2022-08-30T14:59:19;7.13;;;2.75;;
62419;SDS011;48460;51.616;5.426;2022-08-30T15:01:46;5.40;;;2.63;;
62419;SDS011;48460;51.616;5.426;2022-08-30T15:04:11;5.10;;;2.60;;
62419;SDS011;48460;51.616;5.426;2022-08-30T15:06:38;6.10;;;2.40;;
62419;SDS011;48460;51.616;5.426;2022-08-30T15:09:06;10.30;;;2.70;;
62419;SDS011;48460;51.616;5.426;2022-08-30T15:11:33;12.40;;;3.05;;
62419;SDS011;48460;51.616;5.426;2022-08-30T15:13:59;8.43;;;2.72;;
62419;SDS011;48460;51.616;5.426;2022-08-30T15:16:26;6.30;;;2.55;;
62419;SDS011;48460;51.616;5.426;2022-08-30T15:18:53;5.35;;;2.50;;
62419;SDS011;48460;51.616;5.426;2022-08-30T15:21:26;9.43;;;2.60;;
62419;SDS011;48460;51.616;5.426;2022-08-30T15:23:54;7.65;;;2.65;;
62419;SDS011;48460;51.616;5.426;2022-08-30T15:26:21;8.80;;;2.70;;
62419;SDS011;48460;51.616;5.426;2022-08-30T15:28:46;8.20;;;2.70;;
62419;SDS011;48460;51.616;5.426;2022-08-30T15:31:13;6.53;;;2.60;;
62419;SDS011;48460;51.616;5.426;2022-08-30T15:33:38;7.60;;;2.45;;
62419;SDS011;48460;51.616;5.426;2022-08-30T15:36:05;11.15;;;3.05;;
62419;SDS011;48460;51.616;5.426;2022-08-30T15:38:31;6.95;;;2.65;;
62419;SDS011;48460;51.616;5.426;2022-08-30T15:41:00;5.60;;;2.40;;
62419;SDS011;48460;51.616;5.426;2022-08-30T15:43:28;4.97;;;2.58;;
62419;SDS011;48460;51.616;5.426;2022-08-30T15:45:54;7.80;;;2.70;;
62419;SDS011;48460;51.616;5.426;2022-08-30T15:48:20;6.32;;;2.67;;
62419;SDS011;48460;51.616;5.426;2022-08-30T15:50:45;4.70;;;2.45;;
62419;SDS011;48460;51.616;5.426;2022-08-30T15:53:11;6.53;;;2.50;;
62419;SDS011;48460;51.616;5.426;2022-08-30T15:55:36;7.53;;;2.70;;
62419;SDS011;48460;51.616;5.426;2022-08-30T15:58:02;7.43;;;2.78;;
62419;SDS011;48460;51.616;5.426;2022-08-30T16:00:27;6.50;;;2.30;;
62419;SDS011;48460;51.616;5.426;2022-08-30T16:02:53;9.75;;;2.55;;
62419;SDS011;48460;51.616;5.426;2022-08-30T16:05:19;6.03;;;2.80;;
62419;SDS011;48460;51.616;5.426;2022-08-30T16:07:47;8.18;;;2.67;;
62419;SDS011;48460;51.616;5.426;2022-08-30T16:10:13;7.30;;;2.50;;
62419;SDS011;48460;51.616;5.426;2022-08-30T16:12:39;7.13;;;2.80;;
62419;SDS011;48460;51.616;5.426;2022-08-30T16:15:05;6.10;;;2.75;;
62419;SDS011;48460;51.616;5.426;2022-08-30T16:17:31;5.15;;;2.65;;